createdAt,value
2022-08-28T00:02:03.406Z,18.60
2022-08-28T00:04:31.037Z,18.60
2022-08-28T00:06:58.598Z,18.60
2022-08-28T00:09:26.038Z,18.60
2022-08-28T00:11:54.140Z,18.60
2022-08-28T00:14:21.902Z,18.60
2022-08-28T00:16:50.341Z,18.60
2022-08-28T00:19:19.445Z,18.60
2022-08-28T00:21:47.537Z,18.50
2022-08-28T00:24:15.192Z,18.50
2022-08-28T00:27:01.583Z,18.50
2022-08-28T00:29:29.444Z,18.40
2022-08-28T00:31:56.963Z,18.50
2022-08-28T00:34:25.488Z,18.40
2022-08-28T00:37:00.895Z,18.50
2022-08-28T00:39:28.288Z,18.50
2022-08-28T00:41:57.719Z,18.50
2022-08-28T00:44:27.719Z,18.40
2022-08-28T00:46:57.368Z,18.40
2022-08-28T00:49:33.892Z,18.40
2022-08-28T00:52:05.991Z,18.40
2022-08-28T00:54:59.104Z,18.30
2022-08-28T00:57:35.583Z,18.30
2022-08-28T01:00:06.726Z,18.30
2022-08-28T01:02:34.249Z,18.30
2022-08-28T01:05:01.642Z,18.30
2022-08-28T01:07:29.016Z,18.30
2022-08-28T01:09:56.842Z,18.30
2022-08-28T01:12:29.495Z,18.30
2022-08-28T01:15:00.156Z,18.30
2022-08-28T01:17:32.770Z,18.20
2022-08-28T01:20:06.150Z,18.30
2022-08-28T01:22:43.194Z,18.20
2022-08-28T01:25:16.804Z,18.20
2022-08-28T01:27:44.565Z,18.20
2022-08-28T01:30:16.141Z,18.20
2022-08-28T01:32:55.665Z,18.20
2022-08-28T01:35:27.457Z,18.20
2022-08-28T01:37:55.978Z,18.20
2022-08-28T01:40:35.103Z,18.20
2022-08-28T01:43:17.136Z,18.20
2022-08-28T01:45:47.796Z,18.20
2022-08-28T01:48:16.055Z,18.20
2022-08-28T01:50:43.556Z,18.20
2022-08-28T01:53:14.797Z,18.20
2022-08-28T01:55:43.218Z,18.20
2022-08-28T01:58:11.679Z,18.10
2022-08-28T02:00:40.131Z,18.10
2022-08-28T02:03:07.256Z,18.10
2022-08-28T02:05:35.356Z,18.10
2022-08-28T02:08:04.892Z,18.20
2022-08-28T02:10:35.312Z,18.10
2022-08-28T02:13:04.888Z,18.10
2022-08-28T02:15:33.668Z,18.10
2022-08-28T02:18:01.207Z,18.10
2022-08-28T02:20:29.815Z,18.10
2022-08-28T02:22:58.273Z,18.10
2022-08-28T02:25:26.268Z,18.00
2022-08-28T02:27:53.756Z,18.00
2022-08-28T02:30:21.639Z,18.00
2022-08-28T02:32:49.736Z,18.00
2022-08-28T02:35:18.858Z,18.00
2022-08-28T02:37:47.708Z,17.90
2022-08-28T02:40:17.285Z,18.00
2022-08-28T02:42:45.280Z,18.00
2022-08-28T02:45:14.379Z,18.00
2022-08-28T02:47:43.701Z,17.90
2022-08-28T02:50:13.235Z,17.90
2022-08-28T02:52:41.511Z,17.90
2022-08-28T02:55:11.481Z,17.90
2022-08-28T02:57:38.896Z,17.80
2022-08-28T03:00:14.530Z,17.80
2022-08-28T03:02:42.516Z,17.80
2022-08-28T03:05:10.619Z,17.80
2022-08-28T03:07:38.148Z,17.80
2022-08-28T03:10:07.227Z,17.80
2022-08-28T03:12:35.632Z,17.80
2022-08-28T03:15:03.626Z,17.70
2022-08-28T03:17:31.418Z,17.70
2022-08-28T03:19:59.064Z,17.60
2022-08-28T03:22:45.322Z,17.70
2022-08-28T03:25:12.870Z,17.70
2022-08-28T03:27:39.993Z,17.60
2022-08-28T03:30:08.216Z,17.70
2022-08-28T03:32:36.354Z,17.70
2022-08-28T03:35:05.531Z,17.70
2022-08-28T03:37:32.927Z,17.60
2022-08-28T03:40:00.855Z,17.60
2022-08-28T03:42:28.203Z,17.60
2022-08-28T03:44:55.501Z,17.70
2022-08-28T03:47:22.621Z,17.60
2022-08-28T03:49:58.247Z,17.90
2022-08-28T03:52:25.734Z,17.60
2022-08-28T03:54:53.004Z,17.60
2022-08-28T03:57:22.315Z,17.60
2022-08-28T03:59:51.545Z,17.60
2022-08-28T04:02:20.653Z,17.60
2022-08-28T04:04:51.599Z,17.50
2022-08-28T04:07:19.759Z,17.50
2022-08-28T04:09:47.351Z,17.50
2022-08-28T04:12:15.300Z,17.50
2022-08-28T04:14:42.574Z,17.50
2022-08-28T04:17:10.131Z,17.50
2022-08-28T04:19:38.130Z,17.60
2022-08-28T04:22:05.536Z,17.50
2022-08-28T04:24:32.824Z,17.50
2022-08-28T04:26:59.973Z,17.50
2022-08-28T04:29:27.186Z,17.50
2022-08-28T04:31:54.931Z,17.40
2022-08-28T04:34:22.266Z,17.40
2022-08-28T04:36:51.828Z,17.40
2022-08-28T04:39:19.203Z,17.40
2022-08-28T04:41:46.711Z,17.30
2022-08-28T04:44:13.987Z,17.30
2022-08-28T04:46:41.179Z,17.30
2022-08-28T04:49:08.986Z,17.40
2022-08-28T04:51:40.112Z,17.30
2022-08-28T04:54:11.081Z,17.40
2022-08-28T04:56:40.134Z,17.30
2022-08-28T04:59:07.540Z,17.30
2022-08-28T05:01:34.838Z,17.30
2022-08-28T05:04:03.879Z,17.30
2022-08-28T05:06:33.174Z,17.30
2022-08-28T05:09:02.813Z,17.30
2022-08-28T05:11:34.637Z,17.30
2022-08-28T05:14:05.148Z,17.20
2022-08-28T05:16:34.581Z,17.20
2022-08-28T05:19:02.865Z,17.40
2022-08-28T05:21:30.255Z,17.30
2022-08-28T05:23:58.310Z,17.30
2022-08-28T05:26:27.030Z,17.20
2022-08-28T05:28:57.202Z,17.30
2022-08-28T05:31:26.991Z,17.30
2022-08-28T05:33:54.805Z,17.20
2022-08-28T05:36:32.630Z,17.20
2022-08-28T05:39:02.905Z,17.20
2022-08-28T05:41:32.577Z,17.30
2022-08-28T05:44:01.955Z,17.30
2022-08-28T05:46:29.607Z,17.30
2022-08-28T05:48:57.758Z,17.40
2022-08-28T05:51:26.701Z,17.30
2022-08-28T05:53:55.940Z,17.40
2022-08-28T05:56:29.939Z,17.40
2022-08-28T05:58:59.966Z,17.40
2022-08-28T06:01:33.109Z,17.50
2022-08-28T06:04:03.541Z,17.50
2022-08-28T06:06:34.470Z,17.50
2022-08-28T06:09:05.985Z,17.60
2022-08-28T06:11:33.355Z,17.50
2022-08-28T06:14:06.617Z,17.50
2022-08-28T06:16:35.642Z,17.60
2022-08-28T06:19:03.005Z,17.60
2022-08-28T06:21:30.382Z,17.60
2022-08-28T06:23:57.541Z,17.70
2022-08-28T06:26:25.055Z,17.70
2022-08-28T06:28:53.585Z,17.80
2022-08-28T06:31:23.757Z,17.90
2022-08-28T06:33:56.063Z,17.90
2022-08-28T06:36:25.315Z,18.00
2022-08-28T06:38:52.427Z,18.50
2022-08-28T06:41:19.829Z,19.50
2022-08-28T06:43:47.203Z,20.70
2022-08-28T06:46:14.568Z,21.80
2022-08-28T06:48:41.956Z,22.70
2022-08-28T06:51:11.834Z,23.30
2022-08-28T06:53:40.498Z,23.30
2022-08-28T06:56:26.534Z,23.80
2022-08-28T06:58:56.703Z,24.10
2022-08-28T07:01:30.669Z,24.40
2022-08-28T07:04:01.664Z,25.30
2022-08-28T07:06:32.143Z,25.20
2022-08-28T07:08:59.459Z,24.60
2022-08-28T07:11:29.837Z,24.10
2022-08-28T07:13:57.884Z,23.70
2022-08-28T07:16:31.536Z,23.30
2022-08-28T07:19:00.065Z,23.20
2022-08-28T07:21:27.426Z,23.00
2022-08-28T07:23:55.460Z,22.80
2022-08-28T07:26:24.619Z,22.50
2022-08-28T07:29:09.482Z,22.20
2022-08-28T07:31:45.899Z,21.90
2022-08-28T07:34:14.451Z,21.90
2022-08-28T07:36:42.487Z,21.90
2022-08-28T07:39:11.544Z,21.90
2022-08-28T07:41:42.442Z,21.80
2022-08-28T07:44:30.657Z,21.60
2022-08-28T07:47:00.681Z,21.50
2022-08-28T07:49:27.995Z,21.50
2022-08-28T07:51:55.124Z,21.60
2022-08-28T07:54:23.428Z,21.80
2022-08-28T07:56:51.581Z,21.60
2022-08-28T07:59:19.535Z,21.70
2022-08-28T08:01:49.093Z,21.80
2022-08-28T08:04:17.574Z,21.90
2022-08-28T08:06:45.457Z,22.00
2022-08-28T08:09:15.495Z,22.20
2022-08-28T08:11:43.087Z,22.30
2022-08-28T08:14:10.927Z,22.50
2022-08-28T08:16:41.287Z,22.70
2022-08-28T08:19:10.461Z,22.80
2022-08-28T08:21:39.593Z,23.00
2022-08-28T08:24:07.266Z,22.80
2022-08-28T08:26:34.797Z,22.80
2022-08-28T08:29:02.136Z,22.90
2022-08-28T08:31:33.648Z,22.90
2022-08-28T08:34:04.801Z,23.00
2022-08-28T08:36:34.583Z,23.00
2022-08-28T08:39:02.091Z,22.90
2022-08-28T08:41:52.554Z,22.80
2022-08-28T08:44:33.425Z,22.90
2022-08-28T08:47:16.191Z,22.90
2022-08-28T08:49:57.259Z,22.90
2022-08-28T08:52:58.675Z,22.90
2022-08-28T08:55:27.831Z,22.90
2022-08-28T08:58:04.251Z,23.00
2022-08-28T09:00:34.213Z,22.80
2022-08-28T09:03:19.090Z,23.10
2022-08-28T09:05:48.650Z,23.10
2022-08-28T09:08:50.610Z,22.90
2022-08-28T09:11:44.953Z,22.90
2022-08-28T09:14:29.575Z,22.90
2022-08-28T09:16:58.247Z,22.90
2022-08-28T09:19:25.617Z,23.00
2022-08-28T09:21:53.357Z,23.20
2022-08-28T09:24:34.107Z,23.40
2022-08-28T09:27:13.708Z,23.60
2022-08-28T09:29:43.414Z,23.50
2022-08-28T09:32:34.811Z,23.10
2022-08-28T09:35:08.100Z,23.40
2022-08-28T09:37:36.511Z,23.60
2022-08-28T09:40:15.809Z,23.90
2022-08-28T09:43:16.552Z,24.10
2022-08-28T09:45:43.885Z,24.10
2022-08-28T09:48:30.200Z,24.20
2022-08-28T09:51:13.675Z,24.30
2022-08-28T09:54:00.767Z,24.40
2022-08-28T09:56:40.658Z,24.40
2022-08-28T09:59:12.165Z,24.50
2022-08-28T10:01:44.707Z,24.50
2022-08-28T10:04:41.439Z,24.50
2022-08-28T10:07:19.317Z,24.20
2022-08-28T10:10:01.173Z,24.30
2022-08-28T10:12:46.609Z,24.40
2022-08-28T10:15:13.923Z,24.50
2022-08-28T10:18:12.893Z,24.40
2022-08-28T10:20:52.597Z,24.20
2022-08-28T10:23:46.128Z,24.40
2022-08-28T10:26:21.927Z,24.40
2022-08-28T10:29:20.276Z,24.50
2022-08-28T10:31:53.729Z,24.50
2022-08-28T10:34:46.709Z,24.40
2022-08-28T10:37:16.851Z,24.80
2022-08-28T10:39:57.812Z,24.70
2022-08-28T10:42:39.139Z,25.00
2022-08-28T10:45:20.726Z,25.10
2022-08-28T10:48:20.042Z,25.00
2022-08-28T10:50:49.295Z,25.00
2022-08-28T10:53:30.535Z,25.00
2022-08-28T10:56:25.754Z,25.10
2022-08-28T10:59:01.988Z,25.10
2022-08-28T11:01:32.925Z,25.20
2022-08-28T11:04:06.834Z,25.20
2022-08-28T11:06:49.230Z,25.30
2022-08-28T11:09:46.515Z,24.90
2022-08-28T11:12:16.541Z,24.70
2022-08-28T11:14:54.339Z,24.60
2022-08-28T11:17:33.227Z,24.80
2022-08-28T11:20:18.141Z,24.70
2022-08-28T11:23:00.499Z,24.60
2022-08-28T11:25:49.781Z,24.50
2022-08-28T11:28:44.780Z,24.50
2022-08-28T11:31:18.294Z,24.70
2022-08-28T11:33:59.087Z,24.70
2022-08-28T11:36:28.446Z,24.50
2022-08-28T11:38:55.645Z,24.70
2022-08-28T11:41:36.935Z,24.70
2022-08-28T11:44:09.928Z,24.80
2022-08-28T11:46:48.575Z,24.80
2022-08-28T11:49:33.926Z,24.70
2022-08-28T11:52:33.571Z,25.00
2022-08-28T11:55:20.070Z,25.00
2022-08-28T11:58:29.150Z,25.00
2022-08-28T12:01:05.697Z,24.70
2022-08-28T12:03:37.796Z,24.70
2022-08-28T12:06:07.056Z,24.70
2022-08-28T12:08:49.233Z,24.60
2022-08-28T12:11:49.996Z,24.50
2022-08-28T12:14:26.250Z,24.70
2022-08-28T12:16:59.106Z,24.70
2022-08-28T12:19:27.671Z,24.60
2022-08-28T12:21:56.228Z,24.30
2022-08-28T12:24:24.387Z,24.40
2022-08-28T12:26:54.763Z,24.50
2022-08-28T12:29:38.825Z,24.60
2022-08-28T12:32:12.195Z,24.60
2022-08-28T12:34:45.685Z,24.50
2022-08-28T12:37:47.567Z,24.40
2022-08-28T12:40:25.435Z,24.50
2022-08-28T12:42:57.727Z,24.70
2022-08-28T12:45:51.656Z,24.70
2022-08-28T12:48:22.727Z,24.60
2022-08-28T12:50:58.864Z,24.60
2022-08-28T12:53:27.480Z,24.50
2022-08-28T12:55:56.377Z,24.40
2022-08-28T12:58:36.155Z,24.20
2022-08-28T13:01:10.173Z,24.20
2022-08-28T13:04:04.971Z,24.30
2022-08-28T13:06:38.595Z,24.50
2022-08-28T13:09:18.606Z,24.70
2022-08-28T13:11:49.423Z,25.00
2022-08-28T13:14:43.344Z,25.10
2022-08-28T13:17:12.096Z,25.10
2022-08-28T13:19:40.365Z,25.20
2022-08-28T13:22:29.407Z,25.40
2022-08-28T13:25:02.308Z,25.50
2022-08-28T13:27:30.134Z,25.60
2022-08-28T13:30:06.527Z,25.50
2022-08-28T13:32:37.934Z,25.60
2022-08-28T13:35:16.553Z,25.60
2022-08-28T13:37:47.111Z,25.50
2022-08-28T13:40:46.012Z,25.30
2022-08-28T13:43:11.090Z,25.20
2022-08-28T13:45:44.675Z,25.20
2022-08-28T13:48:17.649Z,25.10
2022-08-28T13:50:48.005Z,25.20
2022-08-28T13:53:18.235Z,25.40
2022-08-28T13:55:46.901Z,25.40
2022-08-28T13:58:15.797Z,25.30
2022-08-28T14:00:46.316Z,25.20
2022-08-28T14:03:32.726Z,25.20
2022-08-28T14:06:00.278Z,25.20
2022-08-28T14:08:27.955Z,25.30
2022-08-28T14:10:55.525Z,25.00
2022-08-28T14:13:27.007Z,25.00
2022-08-28T14:15:56.298Z,24.80
2022-08-28T14:18:25.226Z,24.90
2022-08-28T14:20:53.200Z,25.10
2022-08-28T14:23:20.970Z,25.20
2022-08-28T14:25:49.142Z,25.10
2022-08-28T14:28:17.470Z,25.20
2022-08-28T14:30:47.571Z,25.00
2022-08-28T14:33:16.901Z,24.90
2022-08-28T14:35:44.514Z,25.00
2022-08-28T14:38:12.127Z,25.10
2022-08-28T14:40:43.476Z,25.20
2022-08-28T14:43:13.197Z,25.20
2022-08-28T14:45:49.631Z,25.20
2022-08-28T14:48:18.811Z,25.00
2022-08-28T14:50:48.192Z,25.00
2022-08-28T14:53:17.044Z,25.00
2022-08-28T14:55:49.586Z,25.00
2022-08-28T14:58:18.230Z,25.00
2022-08-28T15:00:49.881Z,24.90
2022-08-28T15:03:18.691Z,24.70
2022-08-28T15:05:46.538Z,24.80
2022-08-28T15:08:16.552Z,24.80
2022-08-28T15:10:44.651Z,24.80
2022-08-28T15:13:12.908Z,24.90
2022-08-28T15:15:42.980Z,24.90
2022-08-28T15:18:11.353Z,24.70
2022-08-28T15:20:40.822Z,24.60
2022-08-28T15:23:08.782Z,24.60
2022-08-28T15:25:36.030Z,24.60
2022-08-28T15:28:04.140Z,24.40
2022-08-28T15:30:31.570Z,24.20
2022-08-28T15:32:58.865Z,24.10
2022-08-28T15:35:26.051Z,24.10
2022-08-28T15:37:53.609Z,24.10
2022-08-28T15:40:40.291Z,24.10
2022-08-28T15:43:07.615Z,24.10
2022-08-28T15:45:39.697Z,23.90
2022-08-28T15:48:08.585Z,23.80
2022-08-28T15:50:36.095Z,23.80
2022-08-28T15:53:06.609Z,23.70
2022-08-28T15:55:36.580Z,23.80
2022-08-28T15:58:08.873Z,23.60
2022-08-28T16:00:42.517Z,23.60
2022-08-28T16:03:10.937Z,23.60
2022-08-28T16:05:40.770Z,23.30
2022-08-28T16:08:09.794Z,23.10
2022-08-28T16:10:37.441Z,23.10
2022-08-28T16:13:06.605Z,23.30
2022-08-28T16:15:34.810Z,23.20
2022-08-28T16:18:02.249Z,23.00
2022-08-28T16:20:29.458Z,23.10
2022-08-28T16:22:56.703Z,23.10
2022-08-28T16:25:23.831Z,23.10
2022-08-28T16:27:51.179Z,23.00
2022-08-28T16:30:18.572Z,22.90
2022-08-28T16:32:46.796Z,22.90
2022-08-28T16:35:15.082Z,22.80
2022-08-28T16:37:42.850Z,22.80
2022-08-28T16:40:10.928Z,22.80
2022-08-28T16:42:38.713Z,22.70
2022-08-28T16:45:06.636Z,22.70
2022-08-28T16:47:35.622Z,22.60
2022-08-28T16:50:08.531Z,22.70
2022-08-28T16:52:36.084Z,22.60
2022-08-28T16:55:04.566Z,22.50
2022-08-28T16:57:32.745Z,22.60
2022-08-28T17:00:00.472Z,22.50
2022-08-28T17:02:28.467Z,22.40
2022-08-28T17:04:58.314Z,22.30
2022-08-28T17:07:25.413Z,22.30
2022-08-28T17:09:52.606Z,22.30
2022-08-28T17:12:19.901Z,22.20
2022-08-28T17:14:47.329Z,22.20
2022-08-28T17:17:14.855Z,22.00
2022-08-28T17:19:42.070Z,22.00
2022-08-28T17:22:28.001Z,22.10
2022-08-28T17:24:55.949Z,22.00
2022-08-28T17:27:23.476Z,22.00
2022-08-28T17:29:51.093Z,22.00
2022-08-28T17:32:18.315Z,22.00
2022-08-28T17:34:46.034Z,21.90
2022-08-28T17:37:13.263Z,21.90
2022-08-28T17:39:40.563Z,21.90
2022-08-28T17:42:07.799Z,21.80
2022-08-28T17:44:35.408Z,21.80
2022-08-28T17:47:03.135Z,21.70
2022-08-28T17:49:30.339Z,21.70
2022-08-28T17:51:57.602Z,21.70
2022-08-28T17:54:25.288Z,21.70
2022-08-28T17:56:54.561Z,21.70
2022-08-28T17:59:23.771Z,21.60
2022-08-28T18:01:51.802Z,21.70
2022-08-28T18:04:24.276Z,21.70
2022-08-28T18:06:54.923Z,21.60
2022-08-28T18:09:25.016Z,21.60
2022-08-28T18:11:52.495Z,21.50
2022-08-28T18:14:20.000Z,21.50
2022-08-28T18:16:47.543Z,21.40
2022-08-28T18:19:16.284Z,21.30
2022-08-28T18:21:43.770Z,21.30
2022-08-28T18:24:13.063Z,21.30
2022-08-28T18:26:41.568Z,21.20
2022-08-28T18:29:08.810Z,21.20
2022-08-28T18:31:35.997Z,21.10
2022-08-28T18:34:03.842Z,21.10
2022-08-28T18:36:30.987Z,21.10
2022-08-28T18:38:58.328Z,21.10
2022-08-28T18:41:41.613Z,21.10
2022-08-28T18:44:12.699Z,21.00
2022-08-28T18:46:40.235Z,21.10
2022-08-28T18:49:07.542Z,21.00
2022-08-28T18:51:34.945Z,21.00
2022-08-28T18:54:02.970Z,20.90
2022-08-28T18:59:02.160Z,20.90
2022-08-28T19:01:29.434Z,20.80
2022-08-28T19:03:56.656Z,20.80
2022-08-28T19:06:24.391Z,20.80
2022-08-28T19:08:51.498Z,20.70
2022-08-28T19:11:19.498Z,20.60
2022-08-28T19:13:47.437Z,20.60
2022-08-28T19:16:20.523Z,20.70
2022-08-28T19:18:48.091Z,20.70
2022-08-28T19:21:20.549Z,20.60
2022-08-28T19:23:55.797Z,20.70
2022-08-28T19:26:25.132Z,20.60
2022-08-28T19:28:53.276Z,20.60
2022-08-28T19:31:20.778Z,20.60
2022-08-28T19:33:48.180Z,20.60
2022-08-28T19:36:15.948Z,20.50
2022-08-28T19:38:43.812Z,20.50
2022-08-28T19:41:12.240Z,20.60
2022-08-28T19:43:43.343Z,20.50
2022-08-28T19:46:18.413Z,20.50
2022-08-28T19:48:51.941Z,20.40
2022-08-28T19:51:23.164Z,20.40
2022-08-28T19:53:58.205Z,20.30
2022-08-28T19:56:31.726Z,20.30
2022-08-28T19:59:01.414Z,20.30
2022-08-28T20:01:31.613Z,20.30
2022-08-28T20:04:00.558Z,20.30
2022-08-28T20:06:30.355Z,20.30
2022-08-28T20:08:57.527Z,20.30
2022-08-28T20:11:25.391Z,20.30
2022-08-28T20:13:59.928Z,20.30
2022-08-28T20:16:27.895Z,20.30
2022-08-28T20:18:57.692Z,20.30
2022-08-28T20:21:36.736Z,20.30
2022-08-28T20:24:11.799Z,20.30
2022-08-28T20:26:39.214Z,20.10
2022-08-28T20:29:07.950Z,20.10
2022-08-28T20:31:35.492Z,20.00
2022-08-28T20:34:05.099Z,20.00
2022-08-28T20:36:32.310Z,20.00
2022-08-28T20:39:00.179Z,19.90
2022-08-28T20:41:28.382Z,20.00
2022-08-28T20:43:55.636Z,19.90
2022-08-28T20:46:23.509Z,19.90
2022-08-28T20:48:50.763Z,19.90
2022-08-28T20:51:37.942Z,20.00
2022-08-28T20:54:05.269Z,20.00
2022-08-28T20:56:32.583Z,20.00
2022-08-28T20:58:59.836Z,20.00
2022-08-28T21:01:27.124Z,19.90
2022-08-28T21:03:54.459Z,20.00
2022-08-28T21:06:21.691Z,19.90
2022-08-28T21:08:50.268Z,19.90
2022-08-28T21:11:17.711Z,19.90
2022-08-28T21:13:44.983Z,19.80
2022-08-28T21:16:12.131Z,19.80
2022-08-28T21:18:49.261Z,19.80
2022-08-28T21:21:28.395Z,19.80
2022-08-28T21:23:56.308Z,19.80
2022-08-28T21:26:24.019Z,19.70
2022-08-28T21:28:52.386Z,19.70
2022-08-28T21:31:20.782Z,19.70
2022-08-28T21:33:48.077Z,19.70
2022-08-28T21:36:18.540Z,19.80
2022-08-28T21:38:45.680Z,19.80
2022-08-28T21:41:14.320Z,19.70
2022-08-28T21:43:43.714Z,19.80
2022-08-28T21:46:13.131Z,19.80
2022-08-28T21:48:41.349Z,19.70
2022-08-28T21:51:10.772Z,19.70
2022-08-28T21:53:38.681Z,19.80
2022-08-28T21:56:07.506Z,19.80
2022-08-28T21:58:36.535Z,19.80
2022-08-28T22:01:04.438Z,19.70
2022-08-28T22:03:32.004Z,19.80
2022-08-28T22:05:59.554Z,19.80
2022-08-28T22:08:28.651Z,19.80
2022-08-28T22:10:56.682Z,19.70
2022-08-28T22:13:24.435Z,19.70
2022-08-28T22:15:51.613Z,19.60
2022-08-28T22:18:18.834Z,19.60
2022-08-28T22:21:06.150Z,19.70
2022-08-28T22:23:37.269Z,19.60
2022-08-28T22:26:12.547Z,19.50
2022-08-28T22:28:40.002Z,19.50
2022-08-28T22:31:08.096Z,19.40
2022-08-28T22:33:36.424Z,19.40
2022-08-28T22:36:04.078Z,19.50
2022-08-28T22:38:31.678Z,19.40
2022-08-28T22:40:59.030Z,19.40
2022-08-28T22:43:26.810Z,19.40
2022-08-28T22:45:54.403Z,19.40
2022-08-28T22:48:21.719Z,19.40
2022-08-28T22:50:49.937Z,19.40
2022-08-28T22:53:18.149Z,19.40
2022-08-28T22:55:45.578Z,19.40
2022-08-28T22:58:13.069Z,19.30
2022-08-28T23:00:41.855Z,19.40
2022-08-28T23:03:08.943Z,19.30
2022-08-28T23:05:36.181Z,19.30
2022-08-28T23:08:04.005Z,19.30
2022-08-28T23:10:55.241Z,19.30
2022-08-28T23:13:20.235Z,19.20
2022-08-28T23:15:49.165Z,19.30
2022-08-28T23:18:17.340Z,19.20
2022-08-28T23:20:45.624Z,19.20
2022-08-28T23:23:13.903Z,19.20
2022-08-28T23:25:41.475Z,19.10
2022-08-28T23:28:08.743Z,19.10
2022-08-28T23:30:35.898Z,19.10
2022-08-28T23:33:03.772Z,19.10
2022-08-28T23:35:35.727Z,19.10
2022-08-28T23:38:04.285Z,19.00
2022-08-28T23:40:34.000Z,19.00
2022-08-28T23:43:04.136Z,19.00
2022-08-28T23:45:31.631Z,19.10
2022-08-28T23:47:59.428Z,19.00
2022-08-28T23:50:27.185Z,19.00
2022-08-28T23:52:54.460Z,19.00
2022-08-28T23:55:22.384Z,19.00
2022-08-28T23:57:52.177Z,19.00
